Aeroporto :
LOGIN :

Iscrizione | Disclaimer

   EN    FR    IT 

 










Sommario :    VFR   VFR Marginale   IFR   IFR Intensivo   IFR Molto Intensivo
Visibilità : 
Base nubi : 
>= 8 km
>= 3000ft
5 / 8 km
1000 / 3000 ft
1500m / 5 km
500 / 1000 ft
800 / 1500m
200 / 500 ft
< 800m
< 200 ft
Simboli :   Temporali  Nebbia  Neve Forte  Precipitazioni Forti  Vento > 20 kt
SIGMETs :   Varie  Temporali  Ghiacco  Turbolenza  Onda orograficha  Ceneri Vulcaniche







- Altitudine del aeroporto : 1000 ft
- Codice IATA : PEV


LHPP - Pécs Pogany

ULTIMO METAR :
  • 201015Z 22005KT CAVOK 11/01 Q1024

METARs OBSOLETI :
  • 200945Z 23003KT CAVOK 11/01 Q1024
  • 200915Z 21003KT CAVOK 10/02 Q1024
  • 200845Z 01006KT CAVOK 10/01 Q1023
  • 200815Z 36006KT CAVOK 09/01 Q1023
  • 200745Z 36006KT CAVOK 09/01 Q1023

TAF TAF LHPP
Valido dal 20 a 09 ore il 20 a 18 ore UTC


200815Z 2009/2018 36008KT CAVOK
TEMPO 2009/2012 FEW040 SCT090
BECMG 2015/2018 VRB03KT
Nessun NOTAM noto per questo aeroporto.



MetMap, La meteo Aeronautica in un colpo d'occhio ! - Copyright ORBIFLY Dicembre 2007 - Disclaimer

ORBIFLY MET'MAP TEAM :

Programmazione e sviluppo : Alexandra Zaïnal
Concezione e sviluppo : Baudouin d'Aumeries
Co-Programmazione e sviluppo : Marc-Olivier Méhu
Supporto tecnico e logistico : Manuel Goepfert
Aiuto per la traduzione : Arnaldo La Scala

Contatto : metmap@orbifly.com




FONTI E CREDITI :

   NOAA